Ehrenberg, AZ

3:56 AM MST on December 10, 2016 (GMT -0700)
Apache Loop | | Change Station

Elev 292 ft 33.63 °N, 114.50 °W | Updated 7 seconds ago

Clear
Clear
42.7 °F
Feels Like 43 °F
N
0.0
Wind Variable Wind from ENE
Gusts 3.0 mph

Today
High -- | Low -- °F
--% Chance of Precip.
Yesterday
High -- | Low -- °F
Precip. -- in
Pressure 30.14 in
Visibility 10.0 miles
Clouds Clear
Windchill 43 °F
Dew Point 25 °F
Humidity 49%
Rainfall 0.00 in
Snow Depth Not available.
7:32 AM 5:30 PM
Waxing Gibbous, 82% visible
METAR KBLH 101052Z AUTO 34003KT 10SM CLR 08/M08 A3015 RMK AO2 SLP207 T00831078 $
Pressure 30.14 in
Visibility 10.0 miles
Clouds Clear
Windchill 43 °F
Dew Point 25 °F
Humidity 49%
Rainfall 0.00 in
Snow Depth Not available.
7:32 AM 5:30 PM
Waxing Gibbous, 82% visible
METAR KBLH 101052Z AUTO 34003KT 10SM CLR 08/M08 A3015 RMK AO2 SLP207 T00831078 $

10-Day Weather Forecast

Almanac

Astronomy

Dec. 10, 2016 Rise Set
Actual Time
Civil Twilight
Nautical Twilight
Astronomical Twilight
Moon
Length of Visible Light
Length of Day
Tomorrow will be .
, % of the Moon is Illuminated

Today's Extremes

State Highs State Lows

Community

WunderPhotos

Upload Photos

1,956,536 photos uploaded!

WunderBlog® & News

Nearby

Air Quality

  Air Quality AQ Index Pollutant
Not available.

Snow Depth

Station Depth Elevation

Earthquake Activity

City Distance Mag. Time & Date
Minimum magnitude displayed is 2.5.

Coastal Water Temperatures

Place Temperature

Stations

Nearby Weather Stations

Station Location Temp. Windchill Dew Point Humidity Wind Precip. Elev Updated Type
                   

Watches & Warnings

There are currently no watches in effect.